Fort Garland, CO (81133)

4:24 PM MST on December 07, 2016 (GMT -0700)
Cuchara Valley | | Change Station

Elev 8632 ft 37.37 °N, 105.11 °W | Updated 0 second ago

Clear
Clear
6.9 °F
Feels Like 7 °F
N
0.0
Wind Variable Wind from NNE
Gusts 6.0 mph

Today
High -- | Low -- °F
--% Chance of Precip.
Yesterday
High -- | Low -- °F
Precip. -- in
Pressure 30.03 in
Visibility 10.0 miles
Clouds Clear
Windchill 7 °F
Dew Point 3 °F
Humidity 85%
Rainfall 0.00 in
Snow Depth Not available.
7:03 AM 4:43 PM
First Quarter, 57% visible
METAR KALS 072252Z AUTO 36009KT 10SM CLR M03/M17 A2999 RMK AO2 SLP169 T10281167
Pressure 30.03 in
Visibility 10.0 miles
Clouds Clear
Windchill 7 °F
Dew Point 3 °F
Humidity 85%
Rainfall 0.00 in
Snow Depth Not available.
7:03 AM 4:43 PM
First Quarter, 57% visible
METAR KALS 072252Z AUTO 36009KT 10SM CLR M03/M17 A2999 RMK AO2 SLP169 T10281167

10-Day Weather Forecast

Almanac

Astronomy

Dec. 07, 2016 Rise Set
Actual Time
Civil Twilight
Nautical Twilight
Astronomical Twilight
Moon
Length of Visible Light
Length of Day
Tomorrow will be .
, % of the Moon is Illuminated

Today's Extremes

State Highs State Lows

Community

WunderPhotos

Upload Photos

1,956,219 photos uploaded!

WunderBlog® & News

Nearby

Air Quality

  Air Quality AQ Index Pollutant
Not available.

Snow Depth

Station Depth Elevation

Earthquake Activity

City Distance Mag. Time & Date
Minimum magnitude displayed is 2.5.

Coastal Water Temperatures

Place Temperature

Stations

Nearby Weather Stations

Station Location Temp. Windchill Dew Point Humidity Wind Precip. Elev Updated Type
                   

Watches & Warnings

There are currently no watches in effect.